Time;durP1;ratioP1;P1;durP2;ratioP2;P2;SDS_P1;SDS_P2;PMS_P1;PMS_P2;Temp;Humidity;BMP_temperature;BMP_pressure;BME280_temperature;BME280_humidity;BME280_pressure;Samples;Min_cycle;Max_cycle;Signal;HPM_P1;HPM_P2
2023/03/22 00:01:46;;;;;;;19.45;2.83;;;11.50;99.90;;;10.75;100.00;100830.97;4152019;28;20034;-73
2023/03/22 00:03:49;;;;;;;19.98;3.72;;;11.50;99.90;;;10.79;100.00;100824.41;4168544;28;20543;-73
2023/03/22 00:05:57;;;;;;;16.45;3.78;;;11.60;99.90;;;10.80;100.00;100822.59;4152050;28;20030;-73
2023/03/22 00:07:58;;;;;;;15.25;2.90;;;11.60;99.90;;;10.78;100.00;100824.59;4151589;28;20037;-73
2023/03/22 00:09:59;;;;;;;17.50;4.55;;;11.60;99.90;;;10.81;100.00;100817.16;4139471;28;20514;-73
2023/03/22 00:11:59;;;;;;;14.52;2.35;;;11.50;99.90;;;10.80;100.00;100820.81;4168378;28;20080;-72
2023/03/22 00:14:00;;;;;;;18.98;3.95;;;11.60;99.90;;;10.77;100.00;100813.19;4151892;28;20046;-73
2023/03/22 00:16:04;;;;;;;18.98;3.13;;;11.60;99.90;;;10.77;100.00;100815.84;4168397;28;20021;-73
2023/03/22 00:18:05;;;;;;;18.85;4.05;;;11.50;99.90;;;10.79;100.00;100818.31;4146823;28;20060;-73
2023/03/22 00:20:07;;;;;;;17.02;2.72;;;11.60;99.90;;;10.77;100.00;100815.00;4151969;28;20405;-73
2023/03/22 00:22:08;;;;;;;25.70;4.60;;;11.60;99.90;;;10.81;100.00;100803.97;4151906;28;20084;-73
2023/03/22 00:24:09;;;;;;;19.42;3.95;;;11.50;99.90;;;10.77;100.00;100797.38;4152899;28;20490;-73
2023/03/22 00:26:12;;;;;;;20.25;2.97;;;11.60;99.90;;;10.84;100.00;100787.81;4153306;28;20452;-73
2023/03/22 00:28:15;;;;;;;18.55;3.03;;;11.50;99.90;;;10.82;100.00;100794.25;4149429;28;20017;-73
2023/03/22 00:30:16;;;;;;;23.10;2.90;;;11.60;99.90;;;10.82;100.00;100795.06;4147165;28;20481;-73
2023/03/22 00:32:17;;;;;;;14.30;3.47;;;11.60;99.90;;;10.82;100.00;100783.69;4152177;28;20026;-73
2023/03/22 00:34:18;;;;;;;11.63;2.88;;;11.60;99.90;;;10.83;100.00;100788.84;4152069;28;20034;-73
2023/03/22 00:36:19;;;;;;;23.63;3.50;;;11.60;99.90;;;10.83;100.00;100780.06;4152929;28;20489;-73
2023/03/22 00:38:20;;;;;;;22.40;4.22;;;11.60;99.90;;;10.79;100.00;100776.91;4152886;28;20026;-72
2023/03/22 00:40:21;;;;;;;19.73;3.33;;;11.60;99.90;;;10.82;100.00;100776.59;4152731;28;20058;-72
2023/03/22 00:42:22;;;;;;;16.17;2.55;;;11.60;99.90;;;10.77;100.00;100778.91;4151749;28;20572;-73
2023/03/22 00:44:23;;;;;;;27.33;3.65;;;11.60;99.90;;;10.81;100.00;100772.31;4152528;28;20026;-73
2023/03/22 00:46:24;;;;;;;17.48;2.50;;;11.60;99.90;;;10.78;100.00;100775.25;4151231;28;20041;-72
2023/03/22 00:48:25;;;;;;;21.58;4.00;;;11.60;99.90;;;10.81;100.00;100777.59;4140275;28;20057;-73
2023/03/22 00:50:26;;;;;;;13.77;3.42;;;11.60;99.90;;;10.79;100.00;100768.16;4140213;28;20034;-72
2023/03/22 00:52:28;;;;;;;17.90;3.30;;;11.50;99.90;;;10.82;100.00;100763.41;4152740;28;20552;-73
2023/03/22 00:54:29;;;;;;;18.20;2.63;;;11.60;99.90;;;10.82;100.00;100762.59;4151466;28;20133;-72
2023/03/22 00:56:32;;;;;;;13.30;2.50;;;11.50;99.90;;;10.77;100.00;100760.44;4151171;28;20025;-73
2023/03/22 00:58:33;;;;;;;14.52;2.72;;;11.60;99.90;;;10.73;100.00;100761.72;4154446;28;20017;-73
2023/03/22 01:00:34;;;;;;;16.85;3.05;;;11.50;99.90;;;10.78;100.00;100766.53;4151392;28;20037;-73
2023/03/22 01:02:35;;;;;;;16.45;4.20;;;11.50;99.90;;;10.74;100.00;100760.75;4152375;28;20034;-73
2023/03/22 01:04:36;;;;;;;25.05;3.63;;;11.50;99.90;;;10.76;100.00;100758.75;4152470;28;20049;-73
2023/03/22 01:06:37;;;;;;;17.75;3.05;;;11.60;99.90;;;10.77;100.00;100762.22;4152414;28;20034;-72
2023/03/22 01:08:38;;;;;;;19.90;3.17;;;11.50;99.90;;;10.71;100.00;100745.22;4152509;28;20037;-73
2023/03/22 01:10:40;;;;;;;18.70;2.90;;;11.60;99.90;;;10.79;100.00;100750.53;4152454;28;20037;-73
2023/03/22 01:12:41;;;;;;;17.85;3.83;;;11.60;99.90;;;10.74;100.00;100744.91;4151104;28;20022;-73
2023/03/22 01:14:42;;;;;;;18.48;2.40;;;11.60;99.90;;;10.78;100.00;100751.50;4150746;28;20417;-73
2023/03/22 01:16:43;;;;;;;14.20;2.95;;;11.50;99.90;;;10.81;100.00;100743.28;4152349;28;20034;-73
2023/03/22 01:18:44;;;;;;;21.48;3.58;;;11.50;99.90;;;10.82;100.00;100744.13;4151141;28;20504;-73
2023/03/22 01:20:45;;;;;;;13.93;2.85;;;11.60;99.90;;;10.82;100.00;100742.31;4152334;28;20109;-73
2023/03/22 01:22:46;;;;;;;16.13;2.80;;;11.50;99.90;;;10.77;100.00;100731.41;4152212;28;20132;-73
2023/03/22 01:24:49;;;;;;;18.65;2.67;;;11.60;99.90;;;10.81;100.00;100731.91;4151155;28;20432;-73
2023/03/22 01:26:50;;;;;;;19.05;3.45;;;11.60;99.90;;;10.80;100.00;100731.09;4148063;28;20549;-73
2023/03/22 01:28:51;;;;;;;16.80;2.60;;;11.60;99.90;;;10.82;100.00;100728.28;4146502;28;20033;-73
2023/03/22 01:30:52;;;;;;;24.00;3.92;;;11.60;99.90;;;10.89;100.00;100732.78;4149790;28;20026;-73
2023/03/22 01:32:53;;;;;;;16.50;2.50;;;11.60;99.90;;;10.78;100.00;100724.31;4152189;28;20157;-73
2023/03/22 01:34:53;;;;;;;17.55;2.75;;;11.60;99.90;;;10.89;100.00;100706.41;4151291;28;20033;-73
2023/03/22 01:36:54;;;;;;;15.65;3.03;;;11.60;99.90;;;10.86;100.00;100705.88;4165274;28;20025;-73
2023/03/22 01:38:56;;;;;;;24.30;4.65;;;11.60;99.90;;;10.85;100.00;100712.13;4167151;28;20025;-73
2023/03/22 01:40:57;;;;;;;22.42;3.78;;;11.60;99.90;;;10.90;100.00;100715.94;4155796;28;20036;-73
2023/03/22 01:42:58;;;;;;;16.52;2.78;;;11.60;99.90;;;10.88;100.00;100702.09;4150925;28;20030;-73
2023/03/22 01:45:14;;;;;;;14.98;2.25;;;11.70;99.90;;;10.95;100.00;100697.84;4167098;28;20561;-73
2023/03/22 01:47:15;;;;;;;24.85;3.75;;;11.70;99.90;;;10.91;100.00;100700.94;4149028;28;20401;-73
2023/03/22 01:49:30;;;;;;;17.05;3.28;;;11.70;99.90;;;10.90;100.00;100694.84;4150815;28;20034;-73
2023/03/22 01:51:32;;;;;;;18.55;2.90;;;11.70;99.90;;;10.88;100.00;100688.91;4150750;28;20025;-73
2023/03/22 01:53:40;;;;;;;18.60;3.95;;;11.60;99.90;;;10.86;100.00;100677.69;4151990;28;20034;-73
2023/03/22 01:55:41;;;;;;;13.57;2.63;;;11.60;99.90;;;10.89;100.00;100671.25;4150968;28;20018;-73
2023/03/22 01:57:43;;;;;;;18.20;3.25;;;11.60;99.90;;;10.86;100.00;100677.69;4150908;28;20616;-73
2023/03/22 01:59:46;;;;;;;16.60;2.88;;;11.60;99.90;;;10.91;100.00;100667.47;4150650;28;20115;-73
2023/03/22 02:01:47;;;;;;;18.60;2.85;;;11.70;99.90;;;10.90;100.00;100667.66;4145334;28;20038;-73
2023/03/22 02:03:58;;;;;;;24.27;3.05;;;11.70;99.90;;;10.93;100.00;100675.25;4156956;28;20028;-73
2023/03/22 02:05:59;;;;;;;17.05;2.55;;;11.70;99.90;;;10.93;100.00;100662.84;4152363;28;20401;-73
2023/03/22 02:08:01;;;;;;;17.17;2.58;;;11.70;99.90;;;10.94;100.00;100659.22;4123113;28;20041;-73
2023/03/22 02:10:03;;;;;;;19.92;2.95;;;11.70;99.90;;;10.90;100.00;100657.88;4152085;28;20036;-73
2023/03/22 02:12:39;;;;;;;17.17;2.80;;;11.70;99.90;;;10.95;100.00;100650.34;4154777;28;20023;-73
2023/03/22 02:15:24;;;;;;;16.55;3.28;;;11.70;99.90;;;10.95;100.00;100642.41;4153552;28;20050;-73
2023/03/22 02:17:58;;;;;;;17.02;2.42;;;11.70;99.90;;;10.99;100.00;100650.84;4147231;28;20033;-73
2023/03/22 02:20:31;;;;;;;23.45;3.72;;;11.70;99.90;;;10.98;100.00;100641.25;4144352;28;20034;-73
2023/03/22 02:23:00;;;;;;;17.33;2.55;;;11.70;99.90;;;10.94;100.00;100635.47;4145918;28;20064;-73
2023/03/22 02:25:43;;;;;;;13.88;2.47;;;11.70;99.90;;;11.00;100.00;100632.19;4153493;28;20030;-73
2023/03/22 02:28:09;;;;;;;22.60;2.95;;;11.70;99.90;;;11.05;100.00;100621.97;4147551;28;20038;-73
2023/03/22 02:30:49;;;;;;;16.35;2.72;;;11.80;99.90;;;10.99;100.00;100627.88;4154661;28;20509;-73
2023/03/22 02:33:13;;;;;;;26.95;3.30;;;11.80;99.90;;;11.02;100.00;100619.66;4153459;28;20517;-73
2023/03/22 02:35:34;;;;;;;19.05;3.60;;;11.70;99.90;;;10.98;100.00;100612.22;4154815;28;20030;-73
2023/03/22 02:38:11;;;;;;;31.02;3.80;;;11.70;99.90;;;10.99;100.00;100609.41;4154631;28;20026;-73
2023/03/22 02:40:27;;;;;;;18.20;4.65;;;11.80;99.90;;;10.97;100.00;100600.00;4154735;28;20377;-73
2023/03/22 02:42:48;;;;;;;22.52;2.60;;;11.80;99.90;;;11.03;100.00;100596.72;4154791;28;20041;-73
2023/03/22 02:45:15;;;;;;;17.30;3.25;;;11.80;99.90;;;10.95;100.00;100588.81;4153254;28;20029;-73
2023/03/22 02:47:40;;;;;;;14.15;2.45;;;11.80;99.90;;;10.96;100.00;100587.81;4153477;28;20026;-73
2023/03/22 02:50:19;;;;;;;23.48;3.03;;;11.70;99.90;;;10.94;100.00;100595.88;4153659;28;20093;-73
2023/03/22 02:52:35;;;;;;;17.67;3.40;;;11.70;99.90;;;10.95;100.00;100579.06;4168925;28;20037;-72
2023/03/22 02:54:47;;;;;;;19.85;2.80;;;11.70;99.90;;;10.95;100.00;100581.72;4154468;28;20537;-73
2023/03/22 02:57:03;;;;;;;16.10;3.45;;;11.70;99.90;;;10.97;100.00;100578.91;4154187;28;20022;-73
2023/03/22 02:59:07;;;;;;;19.83;3.20;;;11.70;99.90;;;10.92;100.00;100576.75;4153134;28;20036;-73
2023/03/22 03:01:12;;;;;;;;;;;11.70;99.90;;;10.92;100.00;100575.94;4153655;28;20030;-73
2023/03/22 03:03:17;;;;;;;11.25;3.28;;;11.70;99.90;;;10.91;100.00;100569.81;4139915;28;19973;-73
2023/03/22 03:05:20;;;;;;;15.43;2.88;;;11.70;99.90;;;10.93;100.00;100573.13;4153186;28;20022;-73
2023/03/22 03:07:26;;;;;;;15.93;2.33;;;11.70;99.90;;;10.96;100.00;100567.50;4153052;28;20508;-73
2023/03/22 03:09:28;;;;;;;18.08;3.15;;;11.70;99.90;;;10.95;100.00;100565.88;4152900;28;20033;-73
2023/03/22 03:11:28;;;;;;;19.17;3.65;;;11.70;99.90;;;10.96;100.00;100562.22;4152918;28;20028;-73
2023/03/22 03:13:29;;;;;;;20.35;3.58;;;11.70;99.90;;;11.05;100.00;100561.25;4153930;28;20030;-73
2023/03/22 03:15:31;;;;;;;21.48;3.38;;;11.80;99.90;;;11.05;100.00;100563.91;4154395;28;20046;-73
2023/03/22 03:17:43;;;;;;;21.20;3.92;;;11.80;99.90;;;11.01;100.00;100567.88;4146852;28;20049;-73
2023/03/22 03:20:08;;;;;;;24.15;4.05;;;11.80;99.90;;;11.00;100.00;100573.28;4156553;28;20139;-73
2023/03/22 03:22:20;;;;;;;16.45;2.83;;;11.80;99.90;;;11.11;100.00;100571.16;4152396;28;20180;-73
2023/03/22 03:24:42;;;;;;;17.98;3.53;;;11.80;99.90;;;11.06;100.00;100572.66;4153804;28;20481;-73
2023/03/22 03:26:43;;;;;;;20.83;4.35;;;11.80;99.90;;;11.05;100.00;100584.22;4152851;28;20037;-73
2023/03/22 03:29:01;;;;;;;22.17;3.15;;;11.80;99.90;;;11.10;100.00;100588.00;4153677;28;20065;-73
2023/03/22 03:31:36;;;;;;;22.50;4.55;;;11.80;99.90;;;11.06;100.00;100591.94;4152205;28;20057;-73
2023/03/22 03:34:17;;;;;;;24.70;3.33;;;11.80;99.90;;;11.08;100.00;100592.59;4128006;28;20053;-73
2023/03/22 03:36:21;;;;;;;20.52;2.70;;;11.80;99.90;;;11.09;100.00;100577.59;4092340;29;20093;-73
2023/03/22 03:38:27;;;;;;;19.98;2.83;;;11.80;99.90;;;11.14;100.00;100582.41;4124150;28;20073;-73
2023/03/22 03:40:43;;;;;;;15.75;3.05;;;11.90;99.90;;;11.07;100.00;100575.13;4150444;28;20066;-73
2023/03/22 03:42:50;;;;;;;20.30;3.55;;;11.80;99.90;;;11.08;100.00;100582.06;4152905;28;20030;-73
2023/03/22 03:44:51;;;;;;;17.20;2.83;;;11.80;99.90;;;11.09;100.00;100586.34;4152226;28;20026;-73
2023/03/22 03:46:53;;;;;;;20.98;3.42;;;11.90;99.90;;;11.13;100.00;100591.31;4151511;28;20026;-73
2023/03/22 03:48:57;;;;;;;17.52;3.35;;;11.90;99.90;;;11.14;100.00;100585.84;4152256;28;20049;-73
2023/03/22 03:51:00;;;;;;;26.98;3.97;;;11.90;99.90;;;11.15;100.00;100574.31;4144837;28;20026;-73
2023/03/22 03:53:02;;;;;;;15.70;2.20;;;11.90;99.90;;;11.16;100.00;100561.94;4146996;28;20034;-73
2023/03/22 03:55:03;;;;;;;20.60;3.42;;;11.90;99.90;;;11.14;100.00;100566.56;4150361;28;20300;-73
2023/03/22 03:57:04;;;;;;;18.08;2.67;;;11.90;99.90;;;11.11;100.00;100565.88;4137555;28;20033;-73
2023/03/22 03:59:07;;;;;;;20.65;2.90;;;11.90;99.90;;;11.10;100.00;100558.97;4144475;28;20030;-73
2023/03/22 04:01:08;;;;;;;16.80;3.28;;;11.90;99.90;;;11.11;100.00;100563.25;4153576;28;20022;-73
2023/03/22 04:03:08;;;;;;;21.90;3.53;;;11.90;99.90;;;11.16;100.00;100570.69;4152015;28;20513;-73
2023/03/22 04:05:11;;;;;;;17.77;3.13;;;11.90;99.90;;;11.20;100.00;100564.06;4168572;28;20033;-73
2023/03/22 04:07:12;;;;;;;19.23;2.83;;;11.90;99.90;;;11.22;100.00;100567.41;4152359;28;20096;-73
2023/03/22 04:09:13;;;;;;;28.40;4.85;;;11.90;99.90;;;11.18;100.00;100566.06;4141601;28;20034;-73
2023/03/22 04:11:14;;;;;;;19.13;3.97;;;11.90;99.90;;;11.15;100.00;100557.63;4150202;28;20029;-73
2023/03/22 04:13:15;;;;;;;20.45;4.13;;;11.90;99.90;;;11.17;100.00;100564.41;4151788;28;20037;-73
2023/03/22 04:15:16;;;;;;;18.42;3.53;;;11.90;99.90;;;11.18;100.00;100565.22;4152947;28;20049;-73
2023/03/22 04:17:17;;;;;;;17.77;4.03;;;11.90;99.90;;;11.18;100.00;100562.59;4147664;28;20018;-73
2023/03/22 04:19:19;;;;;;;22.48;3.45;;;11.90;99.90;;;11.17;100.00;100561.75;4153140;28;20026;-73
2023/03/22 04:21:20;;;;;;;17.38;2.97;;;11.90;99.90;;;11.22;100.00;100564.75;4151997;28;20112;-73
2023/03/22 04:23:22;;;;;;;24.17;3.60;;;12.00;99.90;;;11.21;100.00;100560.44;4152027;28;20022;-73
2023/03/22 04:25:22;;;;;;;23.80;3.15;;;12.00;99.90;;;11.30;100.00;100563.91;4153003;28;20113;-73
2023/03/22 04:27:23;;;;;;;24.00;5.22;;;12.00;99.90;;;11.32;100.00;100575.16;4147148;28;20633;-73
2023/03/22 04:29:24;;;;;;;26.38;4.57;;;12.00;99.90;;;11.28;100.00;100560.63;4167979;28;20058;-73
2023/03/22 04:31:25;;;;;;;27.40;3.38;;;12.00;99.90;;;11.20;100.00;100544.78;4151869;28;20022;-73
2023/03/22 04:33:26;;;;;;;33.15;4.00;;;12.00;99.90;;;11.18;100.00;100565.22;4134787;28;20026;-73
2023/03/22 04:35:27;;;;;;;19.77;3.30;;;11.90;99.90;;;11.19;100.00;100566.88;4151564;28;20022;-73
2023/03/22 04:37:30;;;;;;;16.08;3.08;;;11.90;99.90;;;11.10;100.00;100568.69;4141975;28;20076;-73
2023/03/22 04:39:31;;;;;;;16.27;3.42;;;11.90;99.90;;;11.09;100.00;100556.47;4151674;28;20030;-73
2023/03/22 04:41:33;;;;;;;24.50;3.70;;;11.90;99.90;;;11.10;100.00;100564.25;4151691;28;20405;-73
2023/03/22 04:43:34;;;;;;;26.98;4.18;;;11.80;99.90;;;11.09;100.00;100562.59;4151168;28;20033;-73
2023/03/22 04:45:35;;;;;;;23.80;4.82;;;11.80;99.90;;;11.05;100.00;100574.44;4140117;28;20114;-73
2023/03/22 04:47:36;;;;;;;22.33;4.07;;;11.80;99.90;;;11.02;100.00;100569.50;4151559;28;20101;-73
2023/03/22 04:49:37;;;;;;;27.33;5.22;;;11.80;99.90;;;11.06;100.00;100570.00;4152680;28;20037;-73
2023/03/22 04:51:37;;;;;;;19.67;3.30;;;11.80;99.90;;;11.07;100.00;100572.50;4152616;28;20103;-73
2023/03/22 04:53:38;;;;;;;19.23;3.67;;;11.80;99.90;;;11.01;100.00;100570.50;4151352;28;20021;-73
2023/03/22 04:55:39;;;;;;;15.70;3.03;;;11.80;99.90;;;10.93;100.00;100567.03;4152681;28;20493;-73
2023/03/22 04:57:40;;;;;;;25.13;3.15;;;11.70;99.90;;;10.95;100.00;100565.88;4151554;28;20028;-73
2023/03/22 04:59:41;;;;;;;24.40;4.40;;;11.80;99.90;;;10.94;100.00;100572.13;4152291;28;20068;-73
2023/03/22 05:01:42;;;;;;;23.45;4.07;;;11.70;99.90;;;10.96;100.00;100569.34;4151106;28;20034;-73
2023/03/22 05:03:47;;;;;;;22.05;2.85;;;11.70;99.90;;;10.95;100.00;100570.31;4152561;28;20493;-73
2023/03/22 05:05:59;;;;;;;28.48;3.17;;;11.70;99.90;;;10.89;100.00;100566.53;4152524;28;20100;-73
2023/03/22 05:08:00;;;;;;;22.02;4.03;;;11.70;99.90;;;10.93;100.00;100561.75;4167406;28;20034;-73
2023/03/22 05:10:01;;;;;;;20.58;2.75;;;11.70;99.90;;;10.90;100.00;100562.88;4151139;28;20030;-73
2023/03/22 05:12:02;;;;;;;25.70;4.10;;;11.70;99.90;;;10.92;100.00;100571.47;4152443;28;20076;-73
2023/03/22 05:14:03;;;;;;;19.25;3.92;;;11.70;99.90;;;10.87;100.00;100571.13;4150930;28;20142;-73
2023/03/22 05:16:05;;;;;;;21.05;3.45;;;11.60;99.90;;;10.90;100.00;100562.88;4167518;28;20021;-73
2023/03/22 05:18:06;;;;;;;29.05;3.33;;;11.70;99.90;;;10.88;100.00;100574.59;4151013;28;20104;-73
2023/03/22 05:20:09;;;;;;;19.63;3.58;;;11.70;99.90;;;10.89;100.00;100568.34;4152333;28;20026;-73
2023/03/22 05:22:10;;;;;;;18.27;3.47;;;11.60;99.90;;;10.91;100.00;100575.09;4152299;28;20148;-73
2023/03/22 05:24:11;;;;;;;17.42;3.55;;;11.70;99.90;;;10.89;100.00;100571.81;4147849;28;20027;-73
2023/03/22 05:26:19;;;;;;;21.30;2.88;;;11.70;99.90;;;10.86;100.00;100556.31;4148528;28;20034;-73
2023/03/22 05:28:21;;;;;;;25.67;3.00;;;11.60;99.90;;;10.90;100.00;100568.16;4151299;28;20033;-73
2023/03/22 05:30:21;;;;;;;19.92;3.47;;;11.70;99.90;;;10.84;100.00;100560.88;4152290;28;20034;-73
2023/03/22 05:32:24;;;;;;;18.45;2.75;;;11.60;99.90;;;10.87;100.00;100567.69;4150277;28;20030;-73
2023/03/22 05:34:34;;;;;;;22.25;3.80;;;11.60;99.90;;;10.83;100.00;100567.19;4151820;28;20076;-73
2023/03/22 05:36:35;;;;;;;20.50;3.88;;;11.60;99.90;;;10.81;100.00;100569.13;4152136;28;20065;-73
2023/03/22 05:38:36;;;;;;;24.50;3.83;;;11.60;99.90;;;10.91;100.00;100564.53;4152128;28;20033;-73
2023/03/22 05:40:37;;;;;;;17.25;3.38;;;11.60;99.90;;;10.86;100.00;100561.56;4152110;28;20374;-73
2023/03/22 05:42:38;;;;;;;21.15;4.13;;;11.60;99.90;;;10.84;100.00;100560.09;4151071;28;20044;-73
2023/03/22 05:44:39;;;;;;;18.05;3.40;;;11.60;99.90;;;10.83;100.00;100568.97;4167944;28;20036;-73
2023/03/22 05:46:39;;;;;;;18.20;3.78;;;11.60;99.90;;;10.83;100.00;100556.63;4155330;28;20025;-73
2023/03/22 05:48:40;;;;;;;18.55;3.42;;;11.60;99.90;;;10.80;100.00;100564.88;4155258;28;20144;-73
2023/03/22 05:50:41;;;;;;;21.02;3.65;;;11.60;99.90;;;10.81;100.00;100553.28;4154332;28;20084;-73
2023/03/22 05:52:43;;;;;;;14.48;3.17;;;11.60;99.90;;;10.82;100.00;100557.59;4153998;28;20022;-73
2023/03/22 05:54:44;;;;;;;22.35;4.00;;;11.60;99.90;;;10.83;100.00;100550.50;4154056;28;20552;-73
2023/03/22 05:56:46;;;;;;;15.60;2.90;;;11.50;99.90;;;10.80;100.00;100556.94;4155170;28;20025;-73
2023/03/22 05:58:46;;;;;;;23.50;4.35;;;11.50;99.90;;;10.79;100.00;100552.66;4154914;28;20582;-73
2023/03/22 06:00:50;;;;;;;25.45;3.58;;;11.50;99.90;;;10.77;100.00;100557.28;4154082;28;20039;-73
2023/03/22 06:02:53;;;;;;;14.25;3.47;;;11.60;99.90;;;10.78;100.00;100548.34;4170042;28;20099;-73
2023/03/22 06:04:54;;;;;;;28.33;3.22;;;11.50;99.90;;;10.82;100.00;100560.25;4170042;28;20112;-73
2023/03/22 06:06:55;;;;;;;14.40;2.47;;;11.60;99.90;;;10.84;100.00;100552.19;4155263;28;20109;-73
2023/03/22 06:08:56;;;;;;;15.88;3.95;;;11.60;99.90;;;10.83;100.00;100563.72;4153432;28;20028;-73
2023/03/22 06:10:57;;;;;;;15.60;3.28;;;11.60;99.90;;;10.82;100.00;100549.69;4149971;28;20502;-73
2023/03/22 06:12:57;;;;;;;16.60;2.90;;;11.60;99.90;;;10.85;100.00;100561.72;4153636;28;20510;-73
2023/03/22 06:14:59;;;;;;;12.82;2.60;;;11.60;99.90;;;10.87;100.00;100563.22;4153394;28;20433;-73
2023/03/22 06:17:00;;;;;;;19.60;3.08;;;11.60;99.90;;;10.83;100.00;100566.34;4145342;28;20102;-73
2023/03/22 06:19:00;;;;;;;21.55;3.80;;;11.60;99.90;;;10.78;100.00;100552.81;4149561;28;20022;-73
2023/03/22 06:21:01;;;;;;;17.98;4.22;;;11.60;99.90;;;10.83;100.00;100567.19;4153652;28;20048;-73
2023/03/22 06:23:04;;;;;;;13.85;2.83;;;11.60;99.90;;;10.80;100.00;100566.66;4169663;28;20076;-73
2023/03/22 06:25:07;;;;;;;12.95;2.47;;;11.60;99.90;;;10.82;100.00;100564.69;4154837;28;20022;-73
2023/03/22 06:27:08;;;;;;;16.25;3.75;;;11.60;99.90;;;10.90;100.00;100573.44;4153501;28;20030;-73
2023/03/22 06:29:10;;;;;;;16.70;3.05;;;11.60;99.90;;;10.91;100.00;100590.09;4154420;28;20026;-73
2023/03/22 06:31:10;;;;;;;15.27;3.20;;;11.60;99.90;;;10.87;100.00;100592.22;4154695;28;20116;-73
2023/03/22 06:33:11;;;;;;;24.55;4.40;;;11.60;99.90;;;10.89;100.00;100611.38;4153477;28;20490;-73
2023/03/22 06:35:13;;;;;;;15.32;2.45;;;11.60;99.90;;;10.88;100.00;100607.09;4149318;28;20112;-73
2023/03/22 06:37:15;;;;;;;16.75;3.47;;;11.60;99.90;;;10.88;100.00;100596.53;4153552;28;20402;-73
2023/03/22 06:39:16;;;;;;;18.42;2.92;;;11.60;99.90;;;10.85;100.00;100596.03;4153517;28;20084;-73
2023/03/22 06:41:17;;;;;;;17.48;2.65;;;11.60;99.90;;;10.82;100.00;100591.06;4154590;28;20022;-73
2023/03/22 06:43:18;;;;;;;14.43;2.55;;;11.60;99.90;;;10.84;100.00;100568.81;4153143;28;20505;-73
2023/03/22 06:45:20;;;;;;;20.33;3.90;;;11.60;99.90;;;10.84;100.00;100566.16;4169638;28;20136;-73
2023/03/22 06:47:21;;;;;;;20.05;3.10;;;11.60;99.90;;;10.86;100.00;100550.19;4152089;28;20033;-73
2023/03/22 06:49:22;;;;;;;14.60;3.00;;;11.60;99.90;;;10.89;100.00;100563.88;4144960;28;20033;-73
2023/03/22 06:51:23;;;;;;;16.55;3.10;;;11.60;99.90;;;10.86;100.00;100569.50;4149304;28;20026;-73
2023/03/22 06:53:24;;;;;;;15.05;4.22;;;11.60;99.90;;;10.85;100.00;100554.63;4153100;28;20094;-73
2023/03/22 06:55:25;;;;;;;21.13;2.95;;;11.60;99.90;;;10.81;100.00;100560.41;4142811;28;20030;-73
2023/03/22 06:57:26;;;;;;;11.00;2.63;;;11.60;99.90;;;10.88;100.00;100564.03;4153628;28;20069;-73
2023/03/22 06:59:27;;;;;;;16.52;3.10;;;11.60;99.90;;;10.92;100.00;100570.66;4152912;28;20077;-74
2023/03/22 07:01:28;;;;;;;13.13;2.45;;;11.70;99.90;;;10.89;100.00;100534.03;4154053;28;20026;-74
2023/03/22 07:03:29;;;;;;;10.00;1.95;;;11.70;99.90;;;10.88;100.00;100535.00;4169570;28;20037;-73
2023/03/22 07:05:30;;;;;;;12.02;2.95;;;11.70;99.90;;;10.89;100.00;100541.94;4154252;28;20029;-73
2023/03/22 07:07:31;;;;;;;12.30;2.45;;;11.70;99.90;;;11.03;100.00;100538.66;4154160;28;20100;-74
2023/03/22 07:09:32;;;;;;;12.75;2.40;;;11.70;99.90;;;11.00;100.00;100542.47;4154137;28;20512;-73
2023/03/22 07:11:33;;;;;;;12.82;3.13;;;11.70;99.90;;;11.00;100.00;100539.81;4154129;28;20034;-73
2023/03/22 07:13:33;;;;;;;12.35;2.47;;;11.70;99.90;;;10.98;100.00;100543.63;4152723;28;20057;-74
2023/03/22 07:15:35;;;;;;;17.45;3.72;;;11.80;99.90;;;11.02;100.00;100544.94;4153954;28;20042;-73
2023/03/22 07:17:36;;;;;;;19.50;3.33;;;11.80;99.90;;;11.10;100.00;100548.41;4152820;28;20489;-73
2023/03/22 07:19:37;;;;;;;16.52;2.42;;;11.80;99.90;;;11.16;100.00;100540.81;4154018;28;20044;-73
2023/03/22 07:21:38;;;;;;;17.98;3.17;;;11.90;99.90;;;11.23;100.00;100545.25;4152806;28;20030;-73
2023/03/22 07:23:39;;;;;;;24.13;4.05;;;11.90;99.90;;;11.27;100.00;100551.03;4154018;28;20018;-73
2023/03/22 07:25:40;;;;;;;15.10;2.38;;;12.00;99.90;;;11.26;100.00;100541.50;4152738;28;20521;-73
2023/03/22 07:27:41;;;;;;;14.20;3.10;;;12.00;99.90;;;11.31;100.00;100540.00;4145285;28;20018;-73
2023/03/22 07:29:42;;;;;;;21.98;3.95;;;12.10;99.90;;;11.37;100.00;100541.97;4141995;28;20034;-74
2023/03/22 07:31:44;;;;;;;20.20;3.15;;;12.10;99.90;;;11.42;100.00;100541.47;4150265;28;20021;-72
2023/03/22 07:33:45;;;;;;;17.48;3.97;;;12.20;99.90;;;11.44;100.00;100544.78;4153371;28;20034;-74
2023/03/22 07:35:46;;;;;;;18.63;3.80;;;12.20;99.90;;;11.49;100.00;100538.00;4153116;28;20022;-74
2023/03/22 07:37:47;;;;;;;19.75;3.95;;;12.20;99.90;;;11.54;100.00;100543.59;4146612;28;20052;-74
2023/03/22 07:39:48;;;;;;;19.98;2.97;;;12.30;99.90;;;11.57;100.00;100547.72;4167978;28;20107;-73
2023/03/22 07:41:49;;;;;;;14.38;3.58;;;12.30;99.90;;;11.57;100.00;100531.88;4153356;28;20026;-73
2023/03/22 07:43:50;;;;;;;20.27;3.20;;;12.30;99.90;;;11.59;100.00;100536.00;4152792;28;20037;-73
2023/03/22 07:45:52;;;;;;;17.48;3.75;;;12.40;99.90;;;11.59;100.00;100538.63;4152905;28;20409;-73
2023/03/22 07:47:53;;;;;;;19.73;3.63;;;12.40;99.90;;;11.61;100.00;100527.91;4152979;28;20113;-73
2023/03/22 07:49:54;;;;;;;17.50;2.90;;;12.40;99.90;;;11.62;100.00;100533.03;4152586;28;20049;-73
2023/03/22 07:51:54;;;;;;;13.65;3.30;;;12.40;99.90;;;11.60;100.00;100535.00;4152926;28;20037;-72
2023/03/22 07:53:55;;;;;;;19.58;4.35;;;12.40;99.90;;;11.58;100.00;100529.09;4153056;28;20022;-73
2023/03/22 07:55:56;;;;;;;14.93;3.50;;;12.40;99.90;;;11.57;100.00;100527.44;4152853;28;20049;-73
2023/03/22 07:57:57;;;;;;;16.35;3.78;;;12.40;99.90;;;11.62;100.00;100526.91;4152717;28;20022;-73
2023/03/22 07:59:58;;;;;;;17.60;3.22;;;12.40;99.90;;;11.61;100.00;100526.09;4151302;28;20084;-73
2023/03/22 08:01:59;;;;;;;16.85;2.92;;;12.40;99.90;;;11.73;100.00;100531.91;4151447;28;20036;-73
2023/03/22 08:04:00;;;;;;;13.68;3.30;;;12.50;99.90;;;11.79;100.00;100538.31;4151730;28;20026;-73
2023/03/22 08:06:06;;;;;;;18.90;3.90;;;12.60;99.90;;;11.70;100.00;100529.59;4162873;28;20052;-74
2023/03/22 08:08:08;;;;;;;17.45;2.70;;;12.60;99.90;;;11.73;100.00;100534.53;4149856;28;20026;-74
2023/03/22 08:10:10;;;;;;;19.63;3.65;;;12.50;99.90;;;11.77;100.00;100525.25;4151097;28;20025;-74
2023/03/22 08:12:11;;;;;;;18.42;3.65;;;12.60;99.90;;;11.79;100.00;100525.94;4151475;28;20033;-73
2023/03/22 08:14:12;;;;;;;16.92;3.80;;;12.60;99.90;;;11.83;100.00;100514.00;4151397;28;20049;-73
2023/03/22 08:16:13;;;;;;;20.38;4.35;;;12.60;99.90;;;11.86;100.00;100521.59;4151532;28;20084;-73
2023/03/22 08:18:14;;;;;;;17.23;3.50;;;12.60;99.90;;;11.86;100.00;100507.56;4143900;28;20030;-73
2023/03/22 08:20:17;;;;;;;16.63;3.35;;;12.70;99.90;;;11.90;100.00;100508.88;4152400;28;20030;-73
2023/03/22 08:22:22;;;;;;;17.17;3.35;;;12.70;99.90;;;11.97;100.00;100526.53;4167675;28;20025;-73
2023/03/22 08:24:23;;;;;;;17.73;3.00;;;12.70;99.90;;;12.01;100.00;100522.53;4152500;28;20497;-73
2023/03/22 08:26:24;;;;;;;15.95;2.88;;;12.80;99.90;;;11.95;100.00;100504.72;4153092;28;20026;-73
2023/03/22 08:28:25;;;;;;;21.05;3.22;;;12.70;99.90;;;11.90;100.00;100512.34;4151487;28;20039;-73